Rechercher aéroport 
image banner adimage banner adimage banner ad
image banner ad

1C9 - Frazier Lake Airpark

Situé à Hollister, United States

ICAO - 1C9, IATA -

Données fournies par Airmate  

Information générale

Coordonnées: N36°57'10" W121°27'46"
Élévation : 152 feet MSL.
Variation magnétique : 15° East
Voir autres Aéroports à California

Données opérationnelles

Special qualification required
Heure actuelle UTC:
Heure actuelle locale:
Météo à : KCVH - Hollister Muni ( 8 km )
METAR: KCVH 262215Z AUTO 27016KT 10SM CLR 24/11 A2994 RMK A01
Voir NOTAMs / SUP AIP / TFR affectant cet aéroport [VIEW]
Fréquences de communication: [VIEW]

Pistes:

Identifiant RWYQFULongueur (ft)Largeur (ft)SurfaceLDA (ft)
0565°2500100GRASS
23245°2500100GRASS

Coordonnées de l'aéroport

Adresse: Hollister United States

Vue satellite de 1C9